Accueil
METAR-TAF:

METAR-TAF

Aéroports :

Futuna, France

Aérodrome de Futuna Pointe Vele

latitude: 14-19S, longitude: 178-07W, altitude: 6 m

METAR: absent

Heure: 01:51 (13:51 UTC)

Prévision

Le bulletin a été fait il y a 2 heures et 51 minutes, à 11:00 UTC
Prévision valable du 21 à 12 UTC au 22 à 12 UTC
Vent 5 kt de est
Visibilité 10 km ou plus
Nuages épars à une hauteur de 3000 ft
Temporairement
du 21 à 12 UTC au 21 à 24 UTC
Visibilité: 4000 m
Nuages épars à une hauteur de 2500 ft, Cumulus congestus.
averses de pluie
Probabilité 40% :
Temporairement
du 21 à 12 UTC au 21 à 20 UTC
Visibilité: 2000 m
Nuages fragmentés à une hauteur de 1000 ft
Nuages épars à une hauteur de 2000 ft, Cumulonimbus.
orage, pluie

TAF: NLWF 211100Z 2112/2212 08005KT 9999 SCT030 TEMPO 2112/2124 4000 SHRA SCT025TCU PROB40 TEMPO 2112/2120 2000 TSRA BKN010 SCT020CB

Observations et prévisions météorologiques de plus de 4000 aéroports (messages METAR et TAF).

Les stations disponibles sont représentées par des disques jaunes et rouges sur la carte.

Passer la souris dessus pour voir le nom de la station.

Cliquer dessus pour voir les observations et prévisions météorologiques.

Pour changer de carte: cliquez sur les boutons verts avec une croix noire pour zoomer, sur le bouton vert avec un tiret pour effectuer un zoom arrière, ou sur les flèches vertes pour les cartes adjacentes.


METAR-TAF: